createdAt,value
2018-02-27T00:02:18.361Z,37.00
2018-02-27T00:04:45.820Z,37.10
2018-02-27T00:07:13.281Z,37.10
2018-02-27T00:09:40.761Z,37.10
2018-02-27T00:12:08.214Z,36.90
2018-02-27T00:14:35.678Z,36.70
2018-02-27T00:17:03.166Z,37.00
2018-02-27T00:19:31.399Z,37.00
2018-02-27T00:21:58.858Z,36.90
2018-02-27T00:24:26.335Z,37.10
2018-02-27T00:26:53.790Z,37.10
2018-02-27T00:29:21.232Z,37.00
2018-02-27T00:31:48.732Z,36.50
2018-02-27T00:34:16.178Z,36.20
2018-02-27T00:36:44.397Z,36.00
2018-02-27T00:39:11.875Z,36.00
2018-02-27T00:41:39.331Z,36.20
2018-02-27T00:44:06.785Z,36.60
2018-02-27T00:46:34.265Z,36.40
2018-02-27T00:49:02.498Z,36.70
2018-02-27T00:51:29.963Z,36.70
2018-02-27T00:53:57.434Z,36.80
2018-02-27T00:56:24.892Z,36.60
2018-02-27T00:58:52.346Z,36.40
2018-02-27T01:01:19.907Z,36.90
2018-02-27T01:03:47.365Z,37.00
2018-02-27T01:06:15.584Z,37.20
2018-02-27T01:08:43.062Z,37.00
2018-02-27T01:11:10.530Z,37.10
2018-02-27T01:13:37.998Z,37.10
2018-02-27T01:16:05.469Z,37.10
2018-02-27T01:18:33.699Z,37.30
2018-02-27T01:21:01.935Z,37.60
2018-02-27T01:23:29.390Z,37.20
2018-02-27T01:25:56.926Z,37.40
2018-02-27T01:28:25.091Z,37.40
2018-02-27T01:30:52.558Z,37.30
2018-02-27T01:33:20.797Z,37.50
2018-02-27T01:35:48.266Z,37.40
2018-02-27T01:38:15.721Z,37.30
2018-02-27T01:40:43.202Z,37.20
2018-02-27T01:43:11.420Z,37.40
2018-02-27T01:45:38.869Z,37.40
2018-02-27T01:48:06.354Z,37.60
2018-02-27T01:50:33.850Z,37.80
2018-02-27T01:53:01.277Z,38.00
2018-02-27T01:55:28.753Z,38.20
2018-02-27T01:57:56.982Z,37.80
2018-02-27T02:00:25.197Z,37.70
2018-02-27T02:02:53.448Z,37.80
2018-02-27T02:05:20.898Z,37.70
2018-02-27T02:07:48.354Z,37.70
2018-02-27T02:10:15.830Z,37.80
2018-02-27T02:12:43.285Z,37.70
2018-02-27T02:15:10.744Z,37.70
2018-02-27T02:17:38.994Z,38.20
2018-02-27T02:20:06.445Z,37.70
2018-02-27T02:22:33.897Z,37.70
2018-02-27T02:25:01.394Z,37.70
2018-02-27T02:27:29.619Z,38.10
2018-02-27T02:29:57.094Z,38.10
2018-02-27T02:32:24.558Z,38.30
2018-02-27T02:34:52.022Z,38.50
2018-02-27T02:37:19.503Z,38.40
2018-02-27T02:39:47.350Z,38.50
2018-02-27T02:42:29.698Z,38.40
2018-02-27T02:44:57.154Z,38.30
2018-02-27T02:47:24.617Z,38.30
2018-02-27T02:49:52.102Z,38.30
2018-02-27T02:52:19.562Z,38.10
2018-02-27T02:54:47.018Z,38.10
2018-02-27T02:57:14.488Z,38.00
2018-02-27T02:59:42.716Z,37.90
2018-02-27T03:02:10.190Z,37.80
2018-02-27T03:04:38.432Z,37.50
2018-02-27T03:07:05.889Z,38.10
2018-02-27T03:09:33.351Z,37.70
2018-02-27T03:12:00.825Z,37.70
2018-02-27T03:14:28.272Z,37.90
2018-02-27T03:16:55.749Z,37.70
2018-02-27T03:19:23.211Z,37.90
2018-02-27T03:21:50.679Z,37.90
2018-02-27T03:24:18.166Z,38.00
2018-02-27T03:26:45.618Z,37.90
2018-02-27T03:29:13.064Z,37.90
2018-02-27T03:31:40.549Z,37.90
2018-02-27T03:34:08.013Z,37.90
2018-02-27T03:36:35.474Z,38.20
2018-02-27T03:39:02.953Z,38.50
2018-02-27T03:41:30.414Z,38.80
2018-02-27T03:43:57.902Z,38.90
2018-02-27T03:46:26.130Z,38.80
2018-02-27T03:48:53.585Z,38.80
2018-02-27T03:51:21.072Z,39.00
2018-02-27T03:53:49.303Z,39.10
2018-02-27T03:56:16.811Z,39.10
2018-02-27T03:58:45.054Z,39.10
2018-02-27T04:01:12.510Z,39.10
2018-02-27T04:03:39.970Z,39.20
2018-02-27T04:06:07.447Z,39.30
2018-02-27T04:08:35.675Z,39.30
2018-02-27T04:11:03.158Z,39.20
2018-02-27T04:13:30.634Z,39.20
2018-02-27T04:15:58.857Z,38.90
2018-02-27T04:18:26.321Z,38.80
2018-02-27T04:20:54.578Z,38.70
2018-02-27T04:23:22.032Z,38.60
2018-02-27T04:25:49.484Z,38.70
2018-02-27T04:28:16.983Z,38.60
2018-02-27T04:30:44.442Z,38.40
2018-02-27T04:33:11.894Z,38.30
2018-02-27T04:35:39.388Z,38.10
2018-02-27T04:38:06.844Z,38.20
2018-02-27T04:40:34.294Z,38.30
2018-02-27T04:43:01.780Z,38.20
2018-02-27T04:45:29.238Z,38.10
2018-02-27T04:47:56.693Z,38.20
2018-02-27T04:50:24.177Z,38.10
2018-02-27T04:52:51.640Z,38.20
2018-02-27T04:55:19.100Z,38.10
2018-02-27T04:57:46.617Z,38.10
2018-02-27T05:00:14.104Z,38.00
2018-02-27T05:02:41.567Z,38.00
2018-02-27T05:05:09.046Z,37.90
2018-02-27T05:07:37.283Z,37.90
2018-02-27T05:10:04.770Z,37.80
2018-02-27T05:12:32.265Z,37.80
2018-02-27T05:14:59.747Z,37.90
2018-02-27T05:17:27.208Z,37.90
2018-02-27T05:19:54.685Z,37.90
2018-02-27T05:22:22.148Z,38.00
2018-02-27T05:24:50.393Z,38.60
2018-02-27T05:27:17.873Z,38.50
2018-02-27T05:29:45.350Z,39.40
2018-02-27T05:32:12.820Z,40.00
2018-02-27T05:34:40.358Z,40.60
2018-02-27T05:37:07.780Z,40.00
2018-02-27T05:39:35.257Z,40.20
2018-02-27T05:42:03.482Z,40.30
2018-02-27T05:44:30.975Z,40.30
2018-02-27T05:46:58.442Z,40.20
2018-02-27T05:49:25.941Z,40.10
2018-02-27T05:51:53.407Z,40.20
2018-02-27T05:54:20.896Z,40.20
2018-02-27T05:56:48.363Z,40.30
2018-02-27T05:59:15.852Z,40.40
2018-02-27T06:01:43.320Z,40.20
2018-02-27T06:04:10.787Z,40.20
2018-02-27T06:06:38.279Z,40.10
2018-02-27T06:09:05.738Z,40.10
2018-02-27T06:11:33.220Z,40.10
2018-02-27T06:14:01.452Z,40.30
2018-02-27T06:16:28.931Z,40.30
2018-02-27T06:18:56.402Z,40.30
2018-02-27T06:24:16.078Z,40.50
2018-02-27T06:26:43.537Z,40.40
2018-02-27T06:29:10.999Z,40.40
2018-02-27T06:31:39.258Z,40.20
2018-02-27T06:34:06.726Z,40.20
2018-02-27T06:36:34.961Z,40.10
2018-02-27T06:39:03.207Z,40.20
2018-02-27T06:41:30.719Z,40.20
2018-02-27T06:43:58.178Z,39.70
2018-02-27T06:46:25.643Z,38.80
2018-02-27T06:48:53.915Z,38.80
2018-02-27T06:51:22.159Z,38.70
2018-02-27T06:53:49.634Z,38.70
2018-02-27T06:56:17.145Z,38.40
2018-02-27T06:58:44.613Z,38.70
2018-02-27T07:01:12.075Z,38.70
2018-02-27T07:03:40.361Z,38.70
2018-02-27T07:06:07.829Z,38.70
2018-02-27T07:08:35.293Z,38.80
2018-02-27T07:11:02.817Z,38.90
2018-02-27T07:13:30.293Z,38.70
2018-02-27T07:15:57.759Z,38.50
2018-02-27T07:18:25.267Z,38.60
2018-02-27T07:20:52.727Z,38.80
2018-02-27T07:23:20.191Z,39.40
2018-02-27T07:25:47.688Z,40.00
2018-02-27T07:28:15.187Z,40.40
2018-02-27T07:30:42.648Z,40.70
2018-02-27T07:33:10.105Z,40.90
2018-02-27T07:35:37.616Z,40.40
2018-02-27T07:38:05.123Z,39.90
2018-02-27T07:40:32.584Z,39.70
2018-02-27T07:43:00.072Z,39.50
2018-02-27T07:45:27.582Z,39.70
2018-02-27T07:47:55.045Z,40.40
2018-02-27T07:50:22.532Z,40.70
2018-02-27T07:52:50.038Z,41.00
2018-02-27T07:55:17.516Z,40.80
2018-02-27T07:57:44.990Z,41.10
2018-02-27T08:00:12.489Z,40.90
2018-02-27T08:02:40.733Z,41.10
2018-02-27T08:05:08.198Z,41.00
2018-02-27T08:07:35.687Z,40.90
2018-02-27T08:10:03.194Z,40.50
2018-02-27T08:12:30.648Z,40.70
2018-02-27T08:14:58.159Z,40.30
2018-02-27T08:17:25.613Z,40.60
2018-02-27T08:19:53.091Z,40.70
2018-02-27T08:22:20.589Z,40.70
2018-02-27T08:24:48.051Z,40.80
2018-02-27T08:27:15.505Z,41.00
2018-02-27T08:29:42.995Z,41.00
2018-02-27T08:32:10.450Z,40.90
2018-02-27T08:34:38.026Z,41.00
2018-02-27T08:37:05.519Z,40.90
2018-02-27T08:39:32.988Z,41.00
2018-02-27T08:42:00.456Z,41.30
2018-02-27T08:44:27.960Z,41.00
2018-02-27T08:46:55.417Z,41.00
2018-02-27T08:49:22.890Z,41.00
2018-02-27T08:51:50.370Z,40.90
2018-02-27T08:54:17.884Z,40.80
2018-02-27T08:56:45.342Z,41.10
2018-02-27T08:59:12.847Z,41.50
2018-02-27T09:01:41.110Z,42.60
2018-02-27T09:04:08.566Z,42.20
2018-02-27T09:06:36.024Z,42.30
2018-02-27T09:09:03.542Z,42.10
2018-02-27T09:11:30.997Z,42.20
2018-02-27T09:13:58.463Z,42.20
2018-02-27T09:16:25.956Z,41.90
2018-02-27T09:18:53.410Z,41.60
2018-02-27T09:21:21.673Z,41.20
2018-02-27T09:23:49.131Z,41.60
2018-02-27T09:26:16.593Z,41.80
2018-02-27T09:28:44.850Z,41.70
2018-02-27T09:31:12.317Z,41.60
2018-02-27T09:33:39.813Z,41.90
2018-02-27T09:36:07.284Z,41.70
2018-02-27T09:38:34.750Z,41.80
2018-02-27T09:41:02.338Z,42.00
2018-02-27T09:43:29.795Z,41.80
2018-02-27T09:45:57.260Z,40.80
2018-02-27T09:48:24.750Z,41.40
2018-02-27T09:50:52.218Z,41.70
2018-02-27T09:53:19.687Z,41.60
2018-02-27T09:55:47.186Z,42.00
2018-02-27T09:58:15.427Z,42.10
2018-02-27T10:00:42.904Z,41.50
2018-02-27T10:03:10.406Z,41.60
2018-02-27T10:05:37.865Z,41.70
2018-02-27T10:08:05.331Z,41.60
2018-02-27T10:10:32.840Z,41.30
2018-02-27T10:13:00.303Z,41.30
2018-02-27T10:15:28.575Z,41.70
2018-02-27T10:17:56.797Z,42.80
2018-02-27T10:20:24.273Z,42.30
2018-02-27T10:22:51.766Z,42.60
2018-02-27T10:25:20.000Z,42.40
2018-02-27T10:27:47.456Z,42.40
2018-02-27T10:30:14.944Z,42.50
2018-02-27T10:32:43.166Z,42.30
2018-02-27T10:35:10.677Z,41.70
2018-02-27T10:37:38.210Z,41.60
2018-02-27T10:40:05.646Z,41.40
2018-02-27T10:42:33.148Z,41.10
2018-02-27T10:45:01.378Z,41.10
2018-02-27T10:47:28.846Z,41.00
2018-02-27T10:49:56.358Z,41.10
2018-02-27T10:52:23.833Z,41.10
2018-02-27T10:54:51.300Z,41.30
2018-02-27T10:57:18.793Z,41.60
2018-02-27T10:59:46.264Z,41.90
2018-02-27T11:02:14.501Z,42.00
2018-02-27T11:04:42.002Z,42.00
2018-02-27T11:07:09.466Z,42.20
2018-02-27T11:09:36.925Z,41.00
2018-02-27T11:12:04.426Z,41.20
2018-02-27T11:14:31.915Z,41.20
2018-02-27T11:17:00.142Z,41.40
2018-02-27T11:19:27.649Z,40.80
2018-02-27T11:21:55.881Z,41.70
2018-02-27T11:24:23.371Z,41.70
2018-02-27T11:26:51.655Z,41.30
2018-02-27T11:29:19.887Z,41.80
2018-02-27T11:31:48.114Z,41.10
2018-02-27T11:34:15.624Z,41.20
2018-02-27T11:36:43.086Z,41.70
2018-02-27T11:39:10.556Z,42.30
2018-02-27T11:41:38.142Z,40.50
2018-02-27T11:44:05.599Z,40.80
2018-02-27T11:46:33.055Z,40.50
2018-02-27T11:49:00.554Z,40.90
2018-02-27T11:51:28.027Z,41.00
2018-02-27T11:53:55.482Z,40.50
2018-02-27T11:56:22.980Z,40.40
2018-02-27T11:58:50.441Z,40.00
2018-02-27T12:01:17.915Z,39.90
2018-02-27T12:03:45.422Z,40.20
2018-02-27T12:06:13.660Z,39.20
2018-02-27T12:08:41.249Z,38.90
2018-02-27T12:11:08.729Z,39.30
2018-02-27T12:13:36.198Z,39.80
2018-02-27T12:16:03.709Z,40.40
2018-02-27T12:18:31.171Z,40.30
2018-02-27T12:20:58.644Z,40.40
2018-02-27T12:23:26.990Z,40.20
2018-02-27T12:25:54.463Z,39.70
2018-02-27T12:28:21.926Z,39.30
2018-02-27T12:30:50.197Z,39.40
2018-02-27T12:33:17.656Z,39.50
2018-02-27T12:35:45.894Z,39.70
2018-02-27T12:38:13.388Z,39.70
2018-02-27T12:40:41.614Z,38.70
2018-02-27T12:43:09.107Z,38.70
2018-02-27T12:45:36.619Z,38.10
2018-02-27T12:48:04.079Z,38.60
2018-02-27T12:50:31.557Z,38.50
2018-02-27T12:52:59.074Z,38.10
2018-02-27T12:55:26.541Z,38.50
2018-02-27T12:57:54.007Z,38.60
2018-02-27T13:00:21.515Z,38.50
2018-02-27T13:02:49.738Z,37.90
2018-02-27T13:05:17.203Z,37.80
2018-02-27T13:07:44.701Z,37.00
2018-02-27T13:10:12.172Z,37.30
2018-02-27T13:12:39.630Z,37.60
2018-02-27T13:15:07.114Z,38.40
2018-02-27T13:17:34.582Z,38.10
2018-02-27T13:20:02.104Z,39.30
2018-02-27T13:22:29.565Z,39.10
2018-02-27T13:24:57.036Z,38.70
2018-02-27T13:27:24.537Z,38.70
2018-02-27T13:29:52.006Z,38.30
2018-02-27T13:32:20.248Z,38.10
2018-02-27T13:34:47.741Z,38.00
2018-02-27T13:37:15.969Z,37.90
2018-02-27T13:39:43.435Z,37.90
2018-02-27T13:42:10.949Z,38.10
2018-02-27T13:44:38.427Z,37.50
2018-02-27T13:47:05.887Z,36.70
2018-02-27T13:49:33.469Z,35.40
2018-02-27T13:52:00.942Z,35.50
2018-02-27T13:54:29.182Z,35.10
2018-02-27T13:56:56.684Z,35.10
2018-02-27T13:59:24.930Z,34.60
2018-02-27T14:01:52.387Z,34.50
2018-02-27T14:04:19.903Z,35.00
2018-02-27T14:06:47.379Z,35.00
2018-02-27T14:09:14.891Z,35.30
2018-02-27T14:11:42.397Z,35.00
2018-02-27T14:14:09.867Z,35.70
2018-02-27T14:16:37.330Z,36.20
2018-02-27T14:19:04.836Z,35.60
2018-02-27T14:21:32.303Z,34.60
2018-02-27T14:23:59.783Z,34.70
2018-02-27T14:26:27.386Z,33.70
2018-02-27T14:28:55.606Z,33.10
2018-02-27T14:31:23.071Z,33.00
2018-02-27T14:33:50.559Z,32.50
2018-02-27T14:36:18.797Z,33.20
2018-02-27T14:38:46.300Z,33.20
2018-02-27T14:41:14.531Z,34.40
2018-02-27T14:43:41.995Z,34.30
2018-02-27T14:46:09.477Z,34.10
2018-02-27T14:48:37.714Z,33.20
2018-02-27T14:51:05.222Z,33.10
2018-02-27T14:53:32.689Z,33.10
2018-02-27T14:56:00.156Z,33.40
2018-02-27T14:58:27.642Z,33.80
2018-02-27T15:00:55.148Z,34.10
2018-02-27T15:03:22.620Z,34.10
2018-02-27T15:05:50.078Z,34.70
2018-02-27T15:08:17.570Z,34.90
2018-02-27T15:10:45.050Z,34.80
2018-02-27T15:13:13.315Z,35.30
2018-02-27T15:15:40.790Z,34.60
2018-02-27T15:18:09.023Z,34.40
2018-02-27T15:20:36.510Z,34.40
2018-02-27T15:23:04.010Z,34.30
2018-02-27T15:25:31.484Z,35.00
2018-02-27T15:27:58.951Z,35.30
2018-02-27T15:30:26.454Z,35.10
2018-02-27T15:32:54.687Z,35.00
2018-02-27T15:35:22.163Z,35.00
2018-02-27T15:37:49.673Z,35.10
2018-02-27T15:40:17.133Z,34.90
2018-02-27T15:42:44.596Z,34.60
2018-02-27T15:45:12.146Z,34.30
2018-02-27T15:47:39.616Z,34.50
2018-02-27T15:50:07.151Z,34.90
2018-02-27T15:52:34.651Z,35.50
2018-02-27T15:55:02.147Z,34.80
2018-02-27T15:57:29.636Z,34.70
2018-02-27T15:59:57.264Z,34.40
2018-02-27T16:02:25.609Z,34.80
2018-02-27T16:04:53.957Z,34.80
2018-02-27T16:07:21.692Z,34.70
2018-02-27T16:09:49.418Z,34.90
2018-02-27T16:12:17.720Z,34.60
2018-02-27T16:14:45.182Z,34.60
2018-02-27T16:17:12.642Z,34.90
2018-02-27T16:19:40.149Z,34.80
2018-02-27T16:22:07.615Z,34.50
2018-02-27T16:24:35.846Z,34.80
2018-02-27T16:27:03.378Z,34.80
2018-02-27T16:29:30.857Z,34.90
2018-02-27T16:31:58.322Z,35.00
2018-02-27T16:34:25.861Z,34.90
2018-02-27T16:36:54.045Z,34.00
2018-02-27T16:39:22.275Z,34.30
2018-02-27T16:41:49.760Z,34.20
2018-02-27T16:44:17.214Z,34.80
2018-02-27T16:46:44.677Z,34.50
2018-02-27T16:49:12.172Z,34.60
2018-02-27T16:51:40.411Z,34.90
2018-02-27T16:54:07.876Z,34.80
2018-02-27T16:56:35.443Z,35.00
2018-02-27T16:59:03.671Z,35.40
2018-02-27T17:01:31.148Z,36.10
2018-02-27T17:03:58.630Z,35.30
2018-02-27T17:06:26.110Z,35.20
2018-02-27T17:08:53.678Z,35.20
2018-02-27T17:11:21.987Z,35.30
2018-02-27T17:13:56.380Z,35.30
2018-02-27T17:16:24.732Z,35.30
2018-02-27T17:18:56.459Z,35.20
2018-02-27T17:21:29.332Z,35.10
2018-02-27T17:24:01.853Z,35.10
2018-02-27T17:26:31.491Z,35.10
2018-02-27T17:29:03.105Z,35.50
2018-02-27T17:31:35.730Z,35.40
2018-02-27T17:34:03.190Z,35.40
2018-02-27T17:36:30.655Z,35.20
2018-02-27T17:38:58.159Z,35.20
2018-02-27T17:41:26.391Z,35.20
2018-02-27T17:43:54.644Z,35.50
2018-02-27T17:46:22.143Z,35.70
2018-02-27T17:48:49.611Z,35.50
2018-02-27T17:51:17.075Z,35.50
2018-02-27T17:53:45.347Z,35.50
2018-02-27T17:56:13.582Z,35.60
2018-02-27T17:58:42.163Z,35.60
2018-02-27T18:01:09.660Z,35.50
2018-02-27T18:03:39.939Z,35.60
2018-02-27T18:06:08.251Z,35.60
2018-02-27T18:08:35.712Z,35.50
2018-02-27T18:11:03.955Z,36.00
2018-02-27T18:13:31.425Z,36.00
2018-02-27T18:15:58.890Z,36.20
2018-02-27T18:18:26.373Z,36.20
2018-02-27T18:20:53.888Z,36.30
2018-02-27T18:23:22.034Z,36.20
2018-02-27T18:25:49.567Z,36.40
2018-02-27T18:28:18.973Z,36.50
2018-02-27T18:30:46.438Z,36.70
2018-02-27T18:33:13.911Z,36.90
2018-02-27T18:35:42.943Z,37.00
2018-02-27T18:38:11.436Z,37.40
2018-02-27T18:40:39.672Z,37.20
2018-02-27T18:43:07.179Z,37.20
2018-02-27T18:45:34.673Z,37.30
2018-02-27T18:48:02.245Z,37.20
2018-02-27T18:50:29.760Z,37.20
2018-02-27T18:52:57.229Z,37.30
2018-02-27T18:55:24.684Z,37.20
2018-02-27T18:57:52.177Z,37.30
2018-02-27T19:00:19.669Z,37.20
2018-02-27T19:02:47.895Z,37.30
2018-02-27T19:05:15.395Z,37.30
2018-02-27T19:07:43.629Z,37.10
2018-02-27T19:10:11.114Z,37.10
2018-02-27T19:12:39.362Z,37.10
2018-02-27T19:15:06.846Z,37.10
2018-02-27T19:17:35.104Z,37.40
2018-02-27T19:20:02.567Z,37.40
2018-02-27T19:22:30.049Z,37.30
2018-02-27T19:24:57.539Z,37.50
2018-02-27T19:27:25.035Z,37.50
2018-02-27T19:29:52.538Z,37.40
2018-02-27T19:32:20.092Z,37.40
2018-02-27T19:34:47.599Z,36.40
2018-02-27T19:37:15.152Z,36.20
2018-02-27T19:39:42.631Z,36.30
2018-02-27T19:42:10.894Z,35.80
2018-02-27T19:44:38.350Z,35.80
2018-02-27T19:47:05.822Z,36.10
2018-02-27T19:49:34.103Z,35.50
2018-02-27T19:52:02.332Z,35.70
2018-02-27T19:54:29.818Z,35.70
2018-02-27T19:56:58.114Z,35.60
2018-02-27T19:59:25.618Z,35.50
2018-02-27T20:01:53.087Z,35.40
2018-02-27T20:04:20.556Z,35.50
2018-02-27T20:06:48.052Z,35.70
2018-02-27T20:09:15.566Z,36.00
2018-02-27T20:11:43.030Z,36.00
2018-02-27T20:17:05.025Z,35.80
2018-02-27T20:19:33.268Z,36.20
2018-02-27T20:22:01.534Z,36.30
2018-02-27T20:24:29.000Z,36.30
2018-02-27T20:26:56.463Z,36.30
2018-02-27T20:29:23.962Z,36.20
2018-02-27T20:31:51.451Z,36.10
2018-02-27T20:34:19.857Z,36.30
2018-02-27T20:36:47.456Z,36.20
2018-02-27T20:39:21.499Z,36.30
2018-02-27T20:41:49.766Z,36.20
2018-02-27T20:44:17.225Z,36.20
2018-02-27T20:46:45.472Z,36.40
2018-02-27T20:49:13.009Z,36.30
2018-02-27T20:51:40.476Z,36.50
2018-02-27T20:54:07.983Z,36.40
2018-02-27T20:56:36.246Z,36.50
2018-02-27T20:59:04.474Z,36.30
2018-02-27T21:01:31.984Z,36.30
2018-02-27T21:04:00.223Z,36.20
2018-02-27T21:06:27.691Z,36.20
2018-02-27T21:08:55.191Z,36.00
2018-02-27T21:11:22.668Z,35.90
2018-02-27T21:13:50.155Z,35.80
2018-02-27T21:16:17.656Z,35.80
2018-02-27T21:18:45.106Z,36.10
2018-02-27T21:21:12.570Z,36.00
2018-02-27T21:23:40.111Z,35.90
2018-02-27T21:26:08.338Z,36.00
2018-02-27T21:28:35.833Z,36.00
2018-02-27T21:31:03.314Z,35.90
2018-02-27T21:33:30.775Z,35.90
2018-02-27T21:35:58.293Z,36.00
2018-02-27T21:38:25.775Z,35.80
2018-02-27T21:40:53.244Z,35.90
2018-02-27T21:43:20.716Z,36.10
2018-02-27T21:45:48.205Z,36.20
2018-02-27T21:48:15.677Z,36.00
2018-02-27T21:50:43.908Z,35.70
2018-02-27T21:53:11.402Z,35.60
2018-02-27T21:55:38.910Z,35.80
2018-02-27T21:58:06.371Z,35.90
2018-02-27T22:00:33.858Z,35.90
2018-02-27T22:03:01.335Z,35.90
2018-02-27T22:05:29.574Z,36.00
2018-02-27T22:07:57.061Z,36.00
2018-02-27T22:10:24.524Z,36.20
2018-02-27T22:12:52.759Z,36.20
2018-02-27T22:15:20.230Z,36.10
2018-02-27T22:17:47.699Z,36.20
2018-02-27T22:20:15.172Z,36.00
2018-02-27T22:22:43.414Z,35.70
2018-02-27T22:25:10.926Z,35.70
2018-02-27T22:27:39.140Z,35.90
2018-02-27T22:30:06.627Z,35.80
2018-02-27T22:32:34.863Z,36.00
2018-02-27T22:35:02.339Z,36.00
2018-02-27T22:37:29.835Z,36.10
2018-02-27T22:39:57.289Z,36.40
2018-02-27T22:42:24.762Z,36.20
2018-02-27T22:44:52.242Z,36.10
2018-02-27T22:47:19.700Z,36.30
2018-02-27T22:49:47.180Z,36.70
2018-02-27T22:52:14.651Z,36.60
2018-02-27T22:54:42.878Z,36.80
2018-02-27T22:57:10.425Z,36.80
2018-02-27T22:59:37.941Z,36.80
2018-02-27T23:02:06.169Z,37.00
2018-02-27T23:04:33.629Z,36.90
2018-02-27T23:07:01.113Z,37.10
2018-02-27T23:09:28.576Z,37.20
2018-02-27T23:11:56.799Z,37.00
2018-02-27T23:14:24.287Z,37.00
2018-02-27T23:16:51.755Z,37.10
2018-02-27T23:19:19.213Z,37.30
2018-02-27T23:21:47.454Z,37.30
2018-02-27T23:24:14.980Z,37.20
2018-02-27T23:26:42.598Z,37.20
2018-02-27T23:29:11.832Z,37.30
2018-02-27T23:31:39.353Z,37.20
2018-02-27T23:34:09.613Z,37.60
2018-02-27T23:36:37.136Z,37.50
2018-02-27T23:39:05.359Z,38.10
2018-02-27T23:41:32.829Z,37.60
2018-02-27T23:44:00.314Z,37.80
2018-02-27T23:46:27.804Z,37.50
2018-02-27T23:48:55.271Z,37.50
2018-02-27T23:51:22.858Z,37.50
2018-02-27T23:53:50.325Z,37.70
2018-02-27T23:56:17.795Z,37.50
2018-02-27T23:58:45.375Z,37.60
